sensor_id;sensor_type;location;lat;lon;timestamp;temperature;humidity
43679;DHT22;29279;50.858;4.392;2022-11-20T00:01:42;6.60;99.90
43679;DHT22;29279;50.858;4.392;2022-11-20T00:04:10;6.70;99.90
43679;DHT22;29279;50.858;4.392;2022-11-20T00:06:38;6.60;99.90
43679;DHT22;29279;50.858;4.392;2022-11-20T00:09:04;6.70;99.90
43679;DHT22;29279;50.858;4.392;2022-11-20T00:11:31;6.60;99.90
43679;DHT22;29279;50.858;4.392;2022-11-20T00:14:00;6.60;99.90
43679;DHT22;29279;50.858;4.392;2022-11-20T00:16:27;6.70;99.90
43679;DHT22;29279;50.858;4.392;2022-11-20T00:18:54;6.60;99.90
43679;DHT22;29279;50.858;4.392;2022-11-20T00:21:23;6.80;99.90
43679;DHT22;29279;50.858;4.392;2022-11-20T00:23:50;6.70;99.90
43679;DHT22;29279;50.858;4.392;2022-11-20T00:26:18;6.60;99.90
43679;DHT22;29279;50.858;4.392;2022-11-20T00:28:50;6.60;99.90
43679;DHT22;29279;50.858;4.392;2022-11-20T00:31:16;6.60;99.90
43679;DHT22;29279;50.858;4.392;2022-11-20T00:33:43;6.60;99.90
43679;DHT22;29279;50.858;4.392;2022-11-20T00:36:11;6.60;99.90
43679;DHT22;29279;50.858;4.392;2022-11-20T00:38:37;6.70;99.90
43679;DHT22;29279;50.858;4.392;2022-11-20T00:41:06;6.60;99.90
43679;DHT22;29279;50.858;4.392;2022-11-20T00:43:32;6.60;99.90
43679;DHT22;29279;50.858;4.392;2022-11-20T00:45:59;6.70;99.90
43679;DHT22;29279;50.858;4.392;2022-11-20T00:48:25;6.60;99.90
43679;DHT22;29279;50.858;4.392;2022-11-20T00:50:51;6.50;99.90
43679;DHT22;29279;50.858;4.392;2022-11-20T00:53:16;6.50;99.90
43679;DHT22;29279;50.858;4.392;2022-11-20T00:55:42;6.50;99.90
43679;DHT22;29279;50.858;4.392;2022-11-20T00:58:08;6.60;99.90
43679;DHT22;29279;50.858;4.392;2022-11-20T01:00:34;6.60;99.90
43679;DHT22;29279;50.858;4.392;2022-11-20T01:02:59;6.60;99.90
43679;DHT22;29279;50.858;4.392;2022-11-20T01:05:25;6.70;99.90
43679;DHT22;29279;50.858;4.392;2022-11-20T01:07:51;6.70;99.90
43679;DHT22;29279;50.858;4.392;2022-11-20T01:10:16;6.70;99.90
43679;DHT22;29279;50.858;4.392;2022-11-20T01:12:42;6.70;99.90
43679;DHT22;29279;50.858;4.392;2022-11-20T01:15:08;6.60;99.90
43679;DHT22;29279;50.858;4.392;2022-11-20T01:17:34;6.70;99.90
43679;DHT22;29279;50.858;4.392;2022-11-20T01:20:00;6.70;99.90
43679;DHT22;29279;50.858;4.392;2022-11-20T01:22:25;6.70;99.90
43679;DHT22;29279;50.858;4.392;2022-11-20T01:24:51;6.70;99.90
43679;DHT22;29279;50.858;4.392;2022-11-20T01:27:16;6.80;99.90
43679;DHT22;29279;50.858;4.392;2022-11-20T01:29:42;6.80;99.90
43679;DHT22;29279;50.858;4.392;2022-11-20T01:32:08;6.80;99.90
43679;DHT22;29279;50.858;4.392;2022-11-20T01:34:34;6.80;99.90
43679;DHT22;29279;50.858;4.392;2022-11-20T01:37:00;6.80;99.90
43679;DHT22;29279;50.858;4.392;2022-11-20T01:39:26;6.70;99.90
43679;DHT22;29279;50.858;4.392;2022-11-20T01:41:53;6.70;99.90
43679;DHT22;29279;50.858;4.392;2022-11-20T01:45:00;6.80;99.90
43679;DHT22;29279;50.858;4.392;2022-11-20T01:47:41;6.80;99.90
43679;DHT22;29279;50.858;4.392;2022-11-20T01:50:25;6.80;99.90
43679;DHT22;29279;50.858;4.392;2022-11-20T01:53:02;6.80;99.90
43679;DHT22;29279;50.858;4.392;2022-11-20T01:55:36;6.80;99.90
43679;DHT22;29279;50.858;4.392;2022-11-20T01:58:04;6.80;99.90
43679;DHT22;29279;50.858;4.392;2022-11-20T02:00:30;6.80;99.90
43679;DHT22;29279;50.858;4.392;2022-11-20T02:03:06;6.80;99.90
43679;DHT22;29279;50.858;4.392;2022-11-20T02:08:20;6.70;99.90
43679;DHT22;29279;50.858;4.392;2022-11-20T02:10:47;6.80;99.90
43679;DHT22;29279;50.858;4.392;2022-11-20T02:13:12;6.80;99.90
43679;DHT22;29279;50.858;4.392;2022-11-20T02:15:57;6.90;99.90
43679;DHT22;29279;50.858;4.392;2022-11-20T02:18:24;6.90;99.90
43679;DHT22;29279;50.858;4.392;2022-11-20T02:20:54;6.90;99.90
43679;DHT22;29279;50.858;4.392;2022-11-20T02:24:00;6.90;99.90
43679;DHT22;29279;50.858;4.392;2022-11-20T02:26:20;7.00;99.90
43679;DHT22;29279;50.858;4.392;2022-11-20T02:28:48;7.00;99.90
43679;DHT22;29279;50.858;4.392;2022-11-20T02:31:14;7.00;99.90
43679;DHT22;29279;50.858;4.392;2022-11-20T02:33:39;7.00;99.90
43679;DHT22;29279;50.858;4.392;2022-11-20T02:36:07;7.00;99.90
43679;DHT22;29279;50.858;4.392;2022-11-20T02:38:33;7.00;99.90
43679;DHT22;29279;50.858;4.392;2022-11-20T02:40:59;6.90;99.90
43679;DHT22;29279;50.858;4.392;2022-11-20T02:43:25;6.70;99.90
43679;DHT22;29279;50.858;4.392;2022-11-20T02:45:50;6.70;99.90
43679;DHT22;29279;50.858;4.392;2022-11-20T02:48:16;6.80;99.90
43679;DHT22;29279;50.858;4.392;2022-11-20T02:50:42;6.70;99.90
43679;DHT22;29279;50.858;4.392;2022-11-20T02:53:08;6.60;99.90
43679;DHT22;29279;50.858;4.392;2022-11-20T02:55:33;6.60;99.90
43679;DHT22;29279;50.858;4.392;2022-11-20T02:57:59;6.50;99.90
43679;DHT22;29279;50.858;4.392;2022-11-20T03:00:25;6.70;99.90
43679;DHT22;29279;50.858;4.392;2022-11-20T03:02:50;6.70;99.90
43679;DHT22;29279;50.858;4.392;2022-11-20T03:05:16;6.70;99.90
43679;DHT22;29279;50.858;4.392;2022-11-20T03:07:43;6.70;99.90
43679;DHT22;29279;50.858;4.392;2022-11-20T03:10:09;6.70;99.90
43679;DHT22;29279;50.858;4.392;2022-11-20T03:12:34;6.60;99.90
43679;DHT22;29279;50.858;4.392;2022-11-20T03:15:00;6.60;99.90
43679;DHT22;29279;50.858;4.392;2022-11-20T03:17:26;6.60;99.90
43679;DHT22;29279;50.858;4.392;2022-11-20T03:19:51;6.50;99.90
43679;DHT22;29279;50.858;4.392;2022-11-20T03:22:17;6.40;99.90
43679;DHT22;29279;50.858;4.392;2022-11-20T03:24:43;6.40;99.90
43679;DHT22;29279;50.858;4.392;2022-11-20T03:27:08;6.50;99.90
43679;DHT22;29279;50.858;4.392;2022-11-20T03:29:35;6.50;99.90
43679;DHT22;29279;50.858;4.392;2022-11-20T03:32:01;6.60;99.90
43679;DHT22;29279;50.858;4.392;2022-11-20T03:34:26;6.70;99.90
43679;DHT22;29279;50.858;4.392;2022-11-20T03:36:52;6.70;99.90
43679;DHT22;29279;50.858;4.392;2022-11-20T03:39:17;6.70;99.90
43679;DHT22;29279;50.858;4.392;2022-11-20T03:41:43;6.60;99.90
43679;DHT22;29279;50.858;4.392;2022-11-20T03:44:10;6.70;99.90
43679;DHT22;29279;50.858;4.392;2022-11-20T03:46:36;6.70;99.90
43679;DHT22;29279;50.858;4.392;2022-11-20T03:49:03;6.80;99.90
43679;DHT22;29279;50.858;4.392;2022-11-20T03:51:31;6.90;99.90
43679;DHT22;29279;50.858;4.392;2022-11-20T03:53:59;7.00;99.90
43679;DHT22;29279;50.858;4.392;2022-11-20T03:56:30;7.10;99.90
43679;DHT22;29279;50.858;4.392;2022-11-20T03:58:57;7.00;99.90
43679;DHT22;29279;50.858;4.392;2022-11-20T04:01:28;6.90;99.90
43679;DHT22;29279;50.858;4.392;2022-11-20T04:03:56;6.90;99.90
43679;DHT22;29279;50.858;4.392;2022-11-20T04:06:27;6.90;99.90
43679;DHT22;29279;50.858;4.392;2022-11-20T04:08:57;7.00;99.90
43679;DHT22;29279;50.858;4.392;2022-11-20T04:11:25;6.90;99.90
43679;DHT22;29279;50.858;4.392;2022-11-20T04:14:01;6.80;99.90
43679;DHT22;29279;50.858;4.392;2022-11-20T04:16:33;6.90;99.90
43679;DHT22;29279;50.858;4.392;2022-11-20T04:19:00;6.80;99.90
43679;DHT22;29279;50.858;4.392;2022-11-20T04:21:27;6.80;99.90
43679;DHT22;29279;50.858;4.392;2022-11-20T04:23:53;6.80;99.90
43679;DHT22;29279;50.858;4.392;2022-11-20T04:26:20;6.90;99.90
43679;DHT22;29279;50.858;4.392;2022-11-20T04:28:46;7.10;99.90
43679;DHT22;29279;50.858;4.392;2022-11-20T04:31:17;7.00;99.90
43679;DHT22;29279;50.858;4.392;2022-11-20T04:33:43;7.00;99.90
43679;DHT22;29279;50.858;4.392;2022-11-20T04:36:18;7.10;99.90
43679;DHT22;29279;50.858;4.392;2022-11-20T04:38:44;7.10;99.90
43679;DHT22;29279;50.858;4.392;2022-11-20T04:41:16;7.10;99.90
43679;DHT22;29279;50.858;4.392;2022-11-20T04:43:45;7.10;99.90
43679;DHT22;29279;50.858;4.392;2022-11-20T04:46:11;7.10;99.90
43679;DHT22;29279;50.858;4.392;2022-11-20T04:48:36;7.10;99.90
43679;DHT22;29279;50.858;4.392;2022-11-20T04:51:05;7.10;99.90
43679;DHT22;29279;50.858;4.392;2022-11-20T04:53:31;7.10;99.90
43679;DHT22;29279;50.858;4.392;2022-11-20T04:56:01;7.10;99.90
43679;DHT22;29279;50.858;4.392;2022-11-20T04:58:27;7.20;99.90
43679;DHT22;29279;50.858;4.392;2022-11-20T05:00:53;7.10;99.90
43679;DHT22;29279;50.858;4.392;2022-11-20T05:03:19;7.10;99.90
43679;DHT22;29279;50.858;4.392;2022-11-20T05:05:44;7.10;99.90
43679;DHT22;29279;50.858;4.392;2022-11-20T05:08:10;7.20;99.90
43679;DHT22;29279;50.858;4.392;2022-11-20T05:10:36;7.20;99.90
43679;DHT22;29279;50.858;4.392;2022-11-20T05:13:01;7.20;99.90
43679;DHT22;29279;50.858;4.392;2022-11-20T05:15:27;7.30;99.90
43679;DHT22;29279;50.858;4.392;2022-11-20T05:17:53;7.30;99.90
43679;DHT22;29279;50.858;4.392;2022-11-20T05:20:19;7.40;99.90
43679;DHT22;29279;50.858;4.392;2022-11-20T05:22:48;7.40;99.90
43679;DHT22;29279;50.858;4.392;2022-11-20T05:25:13;7.40;99.90
43679;DHT22;29279;50.858;4.392;2022-11-20T05:27:39;7.40;99.90
43679;DHT22;29279;50.858;4.392;2022-11-20T05:30:05;7.40;99.90
43679;DHT22;29279;50.858;4.392;2022-11-20T05:32:31;7.40;99.90
43679;DHT22;29279;50.858;4.392;2022-11-20T05:34:57;7.50;99.90
43679;DHT22;29279;50.858;4.392;2022-11-20T05:37:22;7.50;99.90
43679;DHT22;29279;50.858;4.392;2022-11-20T05:39:48;7.60;99.90
43679;DHT22;29279;50.858;4.392;2022-11-20T05:42:14;7.70;99.90
43679;DHT22;29279;50.858;4.392;2022-11-20T05:44:59;7.60;99.90
43679;DHT22;29279;50.858;4.392;2022-11-20T05:47:25;7.50;99.90
43679;DHT22;29279;50.858;4.392;2022-11-20T05:49:51;7.30;99.90
43679;DHT22;29279;50.858;4.392;2022-11-20T05:52:16;7.30;99.90
43679;DHT22;29279;50.858;4.392;2022-11-20T05:54:42;7.10;99.90
43679;DHT22;29279;50.858;4.392;2022-11-20T05:57:08;7.20;99.90
43679;DHT22;29279;50.858;4.392;2022-11-20T05:59:33;7.10;99.90
43679;DHT22;29279;50.858;4.392;2022-11-20T06:01:59;6.90;99.90
43679;DHT22;29279;50.858;4.392;2022-11-20T06:04:25;6.90;99.90
43679;DHT22;29279;50.858;4.392;2022-11-20T06:06:50;6.80;99.90
43679;DHT22;29279;50.858;4.392;2022-11-20T06:09:16;6.90;99.90
43679;DHT22;29279;50.858;4.392;2022-11-20T06:11:42;6.70;99.90
43679;DHT22;29279;50.858;4.392;2022-11-20T06:14:07;6.60;99.90
43679;DHT22;29279;50.858;4.392;2022-11-20T06:16:33;6.70;99.90
43679;DHT22;29279;50.858;4.392;2022-11-20T06:18:58;6.80;99.90
43679;DHT22;29279;50.858;4.392;2022-11-20T06:21:24;6.80;99.90
43679;DHT22;29279;50.858;4.392;2022-11-20T06:23:51;6.90;99.90
43679;DHT22;29279;50.858;4.392;2022-11-20T06:26:22;6.80;99.90
43679;DHT22;29279;50.858;4.392;2022-11-20T06:28:48;6.60;99.90
43679;DHT22;29279;50.858;4.392;2022-11-20T06:31:16;6.50;99.90
43679;DHT22;29279;50.858;4.392;2022-11-20T06:33:43;6.50;99.90
43679;DHT22;29279;50.858;4.392;2022-11-20T06:36:10;6.50;99.90
43679;DHT22;29279;50.858;4.392;2022-11-20T06:38:36;6.40;99.90
43679;DHT22;29279;50.858;4.392;2022-11-20T06:41:03;6.40;99.90
43679;DHT22;29279;50.858;4.392;2022-11-20T06:43:29;6.40;99.90
43679;DHT22;29279;50.858;4.392;2022-11-20T06:45:56;6.60;99.90
43679;DHT22;29279;50.858;4.392;2022-11-20T06:48:23;6.50;99.90
43679;DHT22;29279;50.858;4.392;2022-11-20T06:50:49;6.80;99.90
43679;DHT22;29279;50.858;4.392;2022-11-20T06:53:15;6.90;99.90
43679;DHT22;29279;50.858;4.392;2022-11-20T06:55:44;6.80;99.90
43679;DHT22;29279;50.858;4.392;2022-11-20T06:58:11;6.80;99.90
43679;DHT22;29279;50.858;4.392;2022-11-20T07:00:37;6.80;99.90
43679;DHT22;29279;50.858;4.392;2022-11-20T07:03:04;6.80;99.90
43679;DHT22;29279;50.858;4.392;2022-11-20T07:05:29;6.70;99.90
43679;DHT22;29279;50.858;4.392;2022-11-20T07:07:56;6.70;99.90
43679;DHT22;29279;50.858;4.392;2022-11-20T07:10:22;6.80;99.90
43679;DHT22;29279;50.858;4.392;2022-11-20T07:12:52;6.80;99.90
43679;DHT22;29279;50.858;4.392;2022-11-20T07:15:19;6.80;99.90
43679;DHT22;29279;50.858;4.392;2022-11-20T07:17:45;6.80;99.90
43679;DHT22;29279;50.858;4.392;2022-11-20T07:20:12;6.80;99.90
43679;DHT22;29279;50.858;4.392;2022-11-20T07:22:38;6.80;99.90
43679;DHT22;29279;50.858;4.392;2022-11-20T07:25:04;7.00;99.90
43679;DHT22;29279;50.858;4.392;2022-11-20T07:27:30;7.10;99.90
43679;DHT22;29279;50.858;4.392;2022-11-20T07:29:56;7.20;99.90
43679;DHT22;29279;50.858;4.392;2022-11-20T07:32:22;7.20;99.90
43679;DHT22;29279;50.858;4.392;2022-11-20T07:34:48;7.30;99.90
43679;DHT22;29279;50.858;4.392;2022-11-20T07:37:14;7.30;99.90
43679;DHT22;29279;50.858;4.392;2022-11-20T07:39:40;7.50;99.90
43679;DHT22;29279;50.858;4.392;2022-11-20T07:42:06;7.60;99.90
43679;DHT22;29279;50.858;4.392;2022-11-20T07:44:32;7.50;99.90
43679;DHT22;29279;50.858;4.392;2022-11-20T07:46:58;7.50;99.90
43679;DHT22;29279;50.858;4.392;2022-11-20T07:49:23;7.30;99.90
43679;DHT22;29279;50.858;4.392;2022-11-20T07:51:52;7.20;99.90
43679;DHT22;29279;50.858;4.392;2022-11-20T07:54:22;7.10;99.90
43679;DHT22;29279;50.858;4.392;2022-11-20T07:56:51;7.20;99.90
43679;DHT22;29279;50.858;4.392;2022-11-20T07:59:16;7.20;99.90
43679;DHT22;29279;50.858;4.392;2022-11-20T08:01:42;7.20;99.90
43679;DHT22;29279;50.858;4.392;2022-11-20T08:04:09;7.30;99.90
43679;DHT22;29279;50.858;4.392;2022-11-20T08:06:35;7.30;99.90
43679;DHT22;29279;50.858;4.392;2022-11-20T08:09:01;7.10;99.90
43679;DHT22;29279;50.858;4.392;2022-11-20T08:11:26;7.10;99.90
43679;DHT22;29279;50.858;4.392;2022-11-20T08:14:11;7.10;99.90
43679;DHT22;29279;50.858;4.392;2022-11-20T08:16:40;7.20;99.90
43679;DHT22;29279;50.858;4.392;2022-11-20T08:19:06;7.30;99.90
43679;DHT22;29279;50.858;4.392;2022-11-20T08:21:32;7.40;99.90
43679;DHT22;29279;50.858;4.392;2022-11-20T08:23:58;7.60;99.90
43679;DHT22;29279;50.858;4.392;2022-11-20T08:26:25;7.60;99.90
43679;DHT22;29279;50.858;4.392;2022-11-20T08:28:57;7.60;99.90
43679;DHT22;29279;50.858;4.392;2022-11-20T08:31:23;7.80;99.90
43679;DHT22;29279;50.858;4.392;2022-11-20T08:33:50;7.60;99.90
43679;DHT22;29279;50.858;4.392;2022-11-20T08:36:16;7.70;99.90
43679;DHT22;29279;50.858;4.392;2022-11-20T08:38:42;7.60;99.90
43679;DHT22;29279;50.858;4.392;2022-11-20T08:41:07;7.60;99.90
43679;DHT22;29279;50.858;4.392;2022-11-20T08:43:54;7.70;99.90
43679;DHT22;29279;50.858;4.392;2022-11-20T08:46:20;7.90;99.90
43679;DHT22;29279;50.858;4.392;2022-11-20T08:48:46;8.10;99.90
43679;DHT22;29279;50.858;4.392;2022-11-20T08:51:12;8.00;99.90
43679;DHT22;29279;50.858;4.392;2022-11-20T08:53:41;8.10;99.90
43679;DHT22;29279;50.858;4.392;2022-11-20T08:56:07;8.20;99.90
43679;DHT22;29279;50.858;4.392;2022-11-20T08:58:33;8.10;99.90
43679;DHT22;29279;50.858;4.392;2022-11-20T09:00:58;8.20;99.90
43679;DHT22;29279;50.858;4.392;2022-11-20T09:03:24;8.30;99.90
43679;DHT22;29279;50.858;4.392;2022-11-20T09:05:57;8.20;99.90
43679;DHT22;29279;50.858;4.392;2022-11-20T09:08:23;8.20;99.90
43679;DHT22;29279;50.858;4.392;2022-11-20T09:10:54;8.20;99.90
43679;DHT22;29279;50.858;4.392;2022-11-20T09:13:21;8.20;99.90
43679;DHT22;29279;50.858;4.392;2022-11-20T09:15:52;8.20;99.90
43679;DHT22;29279;50.858;4.392;2022-11-20T09:18:18;8.30;99.90
43679;DHT22;29279;50.858;4.392;2022-11-20T09:20:43;8.40;99.90
43679;DHT22;29279;50.858;4.392;2022-11-20T09:23:09;8.40;99.90
43679;DHT22;29279;50.858;4.392;2022-11-20T09:25:35;8.40;99.90
43679;DHT22;29279;50.858;4.392;2022-11-20T09:28:00;8.40;99.90
43679;DHT22;29279;50.858;4.392;2022-11-20T09:30:26;8.40;99.90
43679;DHT22;29279;50.858;4.392;2022-11-20T09:32:53;8.40;99.90
43679;DHT22;29279;50.858;4.392;2022-11-20T09:35:18;8.50;99.90
43679;DHT22;29279;50.858;4.392;2022-11-20T09:37:44;8.50;99.90
43679;DHT22;29279;50.858;4.392;2022-11-20T09:40:29;8.70;99.90
43679;DHT22;29279;50.858;4.392;2022-11-20T09:48:41;9.00;99.90
43679;DHT22;29279;50.858;4.392;2022-11-20T09:54:06;9.00;99.90
43679;DHT22;29279;50.858;4.392;2022-11-20T09:56:37;9.10;99.90
43679;DHT22;29279;50.858;4.392;2022-11-20T09:59:06;9.10;99.90
43679;DHT22;29279;50.858;4.392;2022-11-20T10:01:35;9.20;99.90
43679;DHT22;29279;50.858;4.392;2022-11-20T10:04:10;9.10;99.90
43679;DHT22;29279;50.858;4.392;2022-11-20T10:06:51;9.20;99.90
43679;DHT22;29279;50.858;4.392;2022-11-20T10:12:19;9.20;99.90
43679;DHT22;29279;50.858;4.392;2022-11-20T10:31:09;9.90;99.90
43679;DHT22;29279;50.858;4.392;2022-11-20T10:33:42;10.10;99.90
43679;DHT22;29279;50.858;4.392;2022-11-20T10:36:21;10.20;99.90
43679;DHT22;29279;50.858;4.392;2022-11-20T10:38:58;10.30;99.90
43679;DHT22;29279;50.858;4.392;2022-11-20T10:41:32;10.50;99.90
43679;DHT22;29279;50.858;4.392;2022-11-20T10:44:04;10.60;99.90
43679;DHT22;29279;50.858;4.392;2022-11-20T10:46:43;10.70;99.90
43679;DHT22;29279;50.858;4.392;2022-11-20T10:49:18;10.80;99.90
43679;DHT22;29279;50.858;4.392;2022-11-20T10:57:00;10.50;99.90
43679;DHT22;29279;50.858;4.392;2022-11-20T11:00:31;10.50;99.90
43679;DHT22;29279;50.858;4.392;2022-11-20T11:02:35;10.50;99.90
43679;DHT22;29279;50.858;4.392;2022-11-20T11:07:44;10.30;99.90
43679;DHT22;29279;50.858;4.392;2022-11-20T11:10:19;10.20;99.90
43679;DHT22;29279;50.858;4.392;2022-11-20T11:12:47;10.20;99.90
43679;DHT22;29279;50.858;4.392;2022-11-20T11:18:02;9.80;99.90
43679;DHT22;29279;50.858;4.392;2022-11-20T11:20:27;9.80;99.90
43679;DHT22;29279;50.858;4.392;2022-11-20T11:22:57;9.90;99.90
43679;DHT22;29279;50.858;4.392;2022-11-20T11:25:30;10.00;99.90
43679;DHT22;29279;50.858;4.392;2022-11-20T11:28:01;10.00;99.90
43679;DHT22;29279;50.858;4.392;2022-11-20T11:30:28;10.00;99.90
43679;DHT22;29279;50.858;4.392;2022-11-20T11:33:08;10.20;99.90
43679;DHT22;29279;50.858;4.392;2022-11-20T11:35:43;10.20;99.90
43679;DHT22;29279;50.858;4.392;2022-11-20T11:38:17;10.10;99.90
43679;DHT22;29279;50.858;4.392;2022-11-20T11:40:45;10.20;99.90
43679;DHT22;29279;50.858;4.392;2022-11-20T11:43:20;10.10;99.90
43679;DHT22;29279;50.858;4.392;2022-11-20T11:51:28;9.50;99.90
43679;DHT22;29279;50.858;4.392;2022-11-20T11:53:56;9.40;99.90
43679;DHT22;29279;50.858;4.392;2022-11-20T11:56:24;9.40;99.90
43679;DHT22;29279;50.858;4.392;2022-11-20T11:58:53;9.50;99.90
43679;DHT22;29279;50.858;4.392;2022-11-20T12:01:47;9.50;99.90
43679;DHT22;29279;50.858;4.392;2022-11-20T12:04:26;9.40;99.90
43679;DHT22;29279;50.858;4.392;2022-11-20T12:07:07;9.50;99.90
43679;DHT22;29279;50.858;4.392;2022-11-20T12:09:43;9.30;99.90
43679;DHT22;29279;50.858;4.392;2022-11-20T12:12:30;9.30;99.90
43679;DHT22;29279;50.858;4.392;2022-11-20T12:14:57;9.20;99.90
43679;DHT22;29279;50.858;4.392;2022-11-20T12:17:23;9.10;99.90
43679;DHT22;29279;50.858;4.392;2022-11-20T12:19:49;9.00;99.90
43679;DHT22;29279;50.858;4.392;2022-11-20T12:22:49;8.80;99.90
43679;DHT22;29279;50.858;4.392;2022-11-20T12:25:32;8.80;99.90
43679;DHT22;29279;50.858;4.392;2022-11-20T12:28:09;8.70;99.90
43679;DHT22;29279;50.858;4.392;2022-11-20T12:30:51;8.60;99.90
43679;DHT22;29279;50.858;4.392;2022-11-20T12:33:55;8.50;99.90
43679;DHT22;29279;50.858;4.392;2022-11-20T12:39:28;8.40;99.90
43679;DHT22;29279;50.858;4.392;2022-11-20T12:42:26;8.40;99.90
43679;DHT22;29279;50.858;4.392;2022-11-20T12:53:31;8.60;99.90
43679;DHT22;29279;50.858;4.392;2022-11-20T13:01:25;8.70;99.90
43679;DHT22;29279;50.858;4.392;2022-11-20T13:07:13;8.70;99.90
43679;DHT22;29279;50.858;4.392;2022-11-20T13:09:45;8.90;99.90
43679;DHT22;29279;50.858;4.392;2022-11-20T13:18:07;9.00;99.90
43679;DHT22;29279;50.858;4.392;2022-11-20T13:20:34;8.80;99.90
43679;DHT22;29279;50.858;4.392;2022-11-20T13:23:01;8.70;99.90
43679;DHT22;29279;50.858;4.392;2022-11-20T13:27:57;8.70;99.90
43679;DHT22;29279;50.858;4.392;2022-11-20T13:30:27;8.60;99.90
43679;DHT22;29279;50.858;4.392;2022-11-20T13:33:22;8.60;99.90
43679;DHT22;29279;50.858;4.392;2022-11-20T13:36:05;8.70;99.90
43679;DHT22;29279;50.858;4.392;2022-11-20T13:38:49;8.50;99.90
43679;DHT22;29279;50.858;4.392;2022-11-20T13:41:36;8.60;99.90
43679;DHT22;29279;50.858;4.392;2022-11-20T13:44:13;8.60;99.90
43679;DHT22;29279;50.858;4.392;2022-11-20T13:46:43;8.50;99.90
43679;DHT22;29279;50.858;4.392;2022-11-20T13:49:34;8.40;99.90
43679;DHT22;29279;50.858;4.392;2022-11-20T14:00:21;8.50;99.90
43679;DHT22;29279;50.858;4.392;2022-11-20T14:03:20;8.40;99.90
43679;DHT22;29279;50.858;4.392;2022-11-20T14:05:59;8.50;99.90
43679;DHT22;29279;50.858;4.392;2022-11-20T14:08:46;8.40;99.90
43679;DHT22;29279;50.858;4.392;2022-11-20T14:11:30;8.30;99.90
43679;DHT22;29279;50.858;4.392;2022-11-20T14:14:02;8.30;99.90
43679;DHT22;29279;50.858;4.392;2022-11-20T14:16:31;8.30;99.90
43679;DHT22;29279;50.858;4.392;2022-11-20T14:18:57;8.30;99.90
43679;DHT22;29279;50.858;4.392;2022-11-20T14:21:34;8.30;99.90
43679;DHT22;29279;50.858;4.392;2022-11-20T14:24:09;8.30;99.90
43679;DHT22;29279;50.858;4.392;2022-11-20T14:26:38;8.30;99.90
43679;DHT22;29279;50.858;4.392;2022-11-20T14:29:15;8.30;99.90
43679;DHT22;29279;50.858;4.392;2022-11-20T14:31:42;8.40;99.90
43679;DHT22;29279;50.858;4.392;2022-11-20T14:34:29;8.40;99.90
43679;DHT22;29279;50.858;4.392;2022-11-20T14:37:04;8.40;99.90
43679;DHT22;29279;50.858;4.392;2022-11-20T14:39:37;8.50;99.90
43679;DHT22;29279;50.858;4.392;2022-11-20T14:42:20;8.40;99.90
43679;DHT22;29279;50.858;4.392;2022-11-20T14:44:47;8.40;99.90
43679;DHT22;29279;50.858;4.392;2022-11-20T14:47:21;8.40;99.90
43679;DHT22;29279;50.858;4.392;2022-11-20T14:49:48;8.40;99.90
43679;DHT22;29279;50.858;4.392;2022-11-20T14:52:20;8.40;99.90
43679;DHT22;29279;50.858;4.392;2022-11-20T14:54:53;8.30;99.90
43679;DHT22;29279;50.858;4.392;2022-11-20T14:59:47;8.50;99.90
43679;DHT22;29279;50.858;4.392;2022-11-20T15:02:13;8.50;99.90
43679;DHT22;29279;50.858;4.392;2022-11-20T15:07:11;8.70;99.90
43679;DHT22;29279;50.858;4.392;2022-11-20T15:09:36;8.70;99.90
43679;DHT22;29279;50.858;4.392;2022-11-20T15:12:03;8.60;99.90
43679;DHT22;29279;50.858;4.392;2022-11-20T15:14:30;8.60;99.90
43679;DHT22;29279;50.858;4.392;2022-11-20T15:16:59;8.50;99.90
43679;DHT22;29279;50.858;4.392;2022-11-20T15:19:25;8.50;99.90
43679;DHT22;29279;50.858;4.392;2022-11-20T15:21:52;8.50;99.90
43679;DHT22;29279;50.858;4.392;2022-11-20T15:24:18;8.50;99.90
43679;DHT22;29279;50.858;4.392;2022-11-20T15:26:44;8.60;99.90
43679;DHT22;29279;50.858;4.392;2022-11-20T15:29:12;8.60;99.90
43679;DHT22;29279;50.858;4.392;2022-11-20T15:31:39;8.60;99.90
43679;DHT22;29279;50.858;4.392;2022-11-20T15:34:14;8.60;99.90
43679;DHT22;29279;50.858;4.392;2022-11-20T15:36:41;8.70;99.90
43679;DHT22;29279;50.858;4.392;2022-11-20T15:39:07;8.70;99.90
43679;DHT22;29279;50.858;4.392;2022-11-20T15:41:34;8.80;99.90
43679;DHT22;29279;50.858;4.392;2022-11-20T15:44:00;8.90;99.90
43679;DHT22;29279;50.858;4.392;2022-11-20T15:46:29;8.80;99.90
43679;DHT22;29279;50.858;4.392;2022-11-20T15:48:56;8.90;99.90
43679;DHT22;29279;50.858;4.392;2022-11-20T15:51:34;8.90;99.90
43679;DHT22;29279;50.858;4.392;2022-11-20T15:54:05;8.80;99.90
43679;DHT22;29279;50.858;4.392;2022-11-20T15:56:34;8.80;99.90
43679;DHT22;29279;50.858;4.392;2022-11-20T15:59:00;8.80;99.90
43679;DHT22;29279;50.858;4.392;2022-11-20T16:01:26;8.90;99.90
43679;DHT22;29279;50.858;4.392;2022-11-20T16:03:51;8.90;99.90
43679;DHT22;29279;50.858;4.392;2022-11-20T16:06:17;8.80;99.90
43679;DHT22;29279;50.858;4.392;2022-11-20T16:08:43;8.80;99.90
43679;DHT22;29279;50.858;4.392;2022-11-20T16:11:12;8.90;99.90
43679;DHT22;29279;50.858;4.392;2022-11-20T16:13:38;8.90;99.90
43679;DHT22;29279;50.858;4.392;2022-11-20T16:16:33;8.90;99.90
43679;DHT22;29279;50.858;4.392;2022-11-20T16:18:59;9.00;99.90
43679;DHT22;29279;50.858;4.392;2022-11-20T16:21:26;8.90;99.90
43679;DHT22;29279;50.858;4.392;2022-11-20T16:23:59;8.90;99.90
43679;DHT22;29279;50.858;4.392;2022-11-20T16:26:25;8.90;99.90
43679;DHT22;29279;50.858;4.392;2022-11-20T16:28:50;8.80;99.90
43679;DHT22;29279;50.858;4.392;2022-11-20T16:31:17;8.80;99.90
43679;DHT22;29279;50.858;4.392;2022-11-20T16:33:52;8.90;99.90
43679;DHT22;29279;50.858;4.392;2022-11-20T16:36:19;8.80;99.90
43679;DHT22;29279;50.858;4.392;2022-11-20T16:38:45;8.80;99.90
43679;DHT22;29279;50.858;4.392;2022-11-20T16:41:11;8.80;99.90
43679;DHT22;29279;50.858;4.392;2022-11-20T16:43:50;8.90;99.90
43679;DHT22;29279;50.858;4.392;2022-11-20T16:46:20;8.90;99.90
43679;DHT22;29279;50.858;4.392;2022-11-20T16:49:15;9.00;99.90
43679;DHT22;29279;50.858;4.392;2022-11-20T16:51:41;9.00;99.90
43679;DHT22;29279;50.858;4.392;2022-11-20T16:54:08;9.00;99.90
43679;DHT22;29279;50.858;4.392;2022-11-20T16:56:34;9.00;99.90
43679;DHT22;29279;50.858;4.392;2022-11-20T16:59:00;9.00;99.90
43679;DHT22;29279;50.858;4.392;2022-11-20T17:01:27;9.00;99.90
43679;DHT22;29279;50.858;4.392;2022-11-20T17:04:00;9.10;99.90
43679;DHT22;29279;50.858;4.392;2022-11-20T17:06:29;9.20;99.90
43679;DHT22;29279;50.858;4.392;2022-11-20T17:08:55;9.20;99.90
43679;DHT22;29279;50.858;4.392;2022-11-20T17:11:22;9.30;99.90
43679;DHT22;29279;50.858;4.392;2022-11-20T17:13:48;9.40;99.90
43679;DHT22;29279;50.858;4.392;2022-11-20T17:16:22;9.50;99.90
43679;DHT22;29279;50.858;4.392;2022-11-20T17:18:48;9.50;99.90
43679;DHT22;29279;50.858;4.392;2022-11-20T17:21:17;9.60;99.90
43679;DHT22;29279;50.858;4.392;2022-11-20T17:23:44;9.70;99.90
43679;DHT22;29279;50.858;4.392;2022-11-20T17:26:15;9.80;99.90
43679;DHT22;29279;50.858;4.392;2022-11-20T17:28:43;9.70;99.90